Time;durP1;ratioP1;P1;durP2;ratioP2;P2;SDS_P1;SDS_P2;PMS_P1;PMS_P2;Temp;Humidity;BMP_temperature;BMP_pressure;BME280_temperature;BME280_humidity;BME280_pressure;Samples;Min_cycle;Max_cycle;Signal;HPM_P1;HPM_P2
2023/09/07 00:01:55;;;;;;;23.85;9.75;;;;;;;;;;5051049;28;20036;-69
2023/09/07 00:04:21;;;;;;;17.15;8.93;;;;;;;;;;5033487;28;20041;-69
2023/09/07 00:06:46;;;;;;;19.05;9.15;;;;;;;;;;5033402;28;20025;-69
2023/09/07 00:09:12;;;;;;;17.75;8.88;;;;;;;;;;5033452;28;20085;-69
2023/09/07 00:11:38;;;;;;;16.25;8.35;;;;;;;;;;5032065;28;20032;-69
2023/09/07 00:14:03;;;;;;;27.73;8.23;;;;;;;;;;5033654;28;20021;-69
2023/09/07 00:16:33;;;;;;;13.35;7.93;;;;;;;;;;5033602;28;20261;-69
2023/09/07 00:18:59;;;;;;;17.60;8.82;;;;;;;;;;5033605;28;20030;-69
2023/09/07 00:21:24;;;;;;;18.90;9.07;;;;;;;;;;5033324;28;20021;-69
2023/09/07 00:23:49;;;;;;;16.13;8.57;;;;;;;;;;5033563;28;20389;-68
2023/09/07 00:26:15;;;;;;;14.97;9.23;;;;;;;;;;5033144;28;20017;-68
2023/09/07 00:28:40;;;;;;;15.82;8.80;;;;;;;;;;5033672;28;20021;-69
2023/09/07 00:31:05;;;;;;;12.90;7.87;;;;;;;;;;5052975;28;20064;-69
2023/09/07 00:33:30;;;;;;;14.37;7.93;;;;;;;;;;5053157;28;20388;-69
2023/09/07 00:35:55;;;;;;;14.03;7.67;;;;;;;;;;5053098;28;20025;-69
2023/09/07 00:38:21;;;;;;;13.23;8.10;;;;;;;;;;5053338;28;20762;-69
2023/09/07 00:40:46;;;;;;;17.60;7.87;;;;;;;;;;5053030;28;20025;-69
2023/09/07 00:43:11;;;;;;;15.03;8.07;;;;;;;;;;5053037;28;20029;-69
2023/09/07 00:45:37;;;;;;;16.33;7.63;;;;;;;;;;5052951;28;20278;-69
2023/09/07 00:48:03;;;;;;;16.05;8.95;;;;;;;;;;5053027;28;20021;-69
2023/09/07 00:50:28;;;;;;;19.13;8.27;;;;;;;;;;5053032;28;20361;-69
2023/09/07 00:52:54;;;;;;;20.35;9.02;;;;;;;;;;5052890;28;20028;-69
2023/09/07 00:55:19;;;;;;;17.23;8.98;;;;;;;;;;5051612;28;20021;-69
2023/09/07 00:57:44;;;;;;;16.70;8.27;;;;;;;;;;5032962;28;20084;-69
2023/09/07 01:00:10;;;;;;;16.90;9.43;;;;;;;;;;5033204;28;20025;-69
2023/09/07 01:02:35;;;;;;;15.35;9.25;;;;;;;;;;5049097;28;20266;-69
2023/09/07 01:05:04;;;;;;;17.38;10.00;;;;;;;;;;5056912;28;20028;-69
2023/09/07 01:07:32;;;;;;;17.83;8.68;;;;;;;;;;5056954;28;20484;-69
2023/09/07 01:09:59;;;;;;;13.68;7.38;;;;;;;;;;5056734;28;20417;-69
2023/09/07 01:12:24;;;;;;;15.63;7.47;;;;;;;;;;5056625;28;20100;-69
2023/09/07 01:14:49;;;;;;;14.97;6.90;;;;;;;;;;5056583;28;20099;-69
2023/09/07 01:17:15;;;;;;;13.32;7.90;;;;;;;;;;5056489;28;20274;-69
2023/09/07 01:19:40;;;;;;;13.60;7.78;;;;;;;;;;5056431;28;20028;-69
2023/09/07 01:22:09;;;;;;;13.65;7.90;;;;;;;;;;5056480;28;20496;-69
2023/09/07 01:24:37;;;;;;;12.63;7.55;;;;;;;;;;5056456;28;20017;-69
2023/09/07 01:27:03;;;;;;;14.85;7.78;;;;;;;;;;5056241;28;20024;-69
2023/09/07 01:29:29;;;;;;;16.60;8.32;;;;;;;;;;5056478;28;20032;-69
2023/09/07 01:31:54;;;;;;;11.57;7.30;;;;;;;;;;5056095;28;20040;-69
2023/09/07 01:34:20;;;;;;;17.42;7.95;;;;;;;;;;5056103;28;20074;-69
2023/09/07 01:36:45;;;;;;;16.97;8.27;;;;;;;;;;5056204;28;20025;-69
2023/09/07 01:39:10;;;;;;;13.93;7.43;;;;;;;;;;5049985;28;20025;-68
2023/09/07 01:41:35;;;;;;;12.30;7.37;;;;;;;;;;5036155;28;20254;-69
2023/09/07 01:44:00;;;;;;;11.90;7.00;;;;;;;;;;5037153;28;20274;-69
2023/09/07 01:46:26;;;;;;;13.17;7.70;;;;;;;;;;5036080;28;20029;-69
2023/09/07 01:48:51;;;;;;;21.38;7.32;;;;;;;;;;5036041;28;20017;-69
2023/09/07 01:51:16;;;;;;;17.17;9.17;;;;;;;;;;5036025;28;20037;-69
2023/09/07 01:53:41;;;;;;;13.20;7.83;;;;;;;;;;5035946;28;20045;-69
2023/09/07 01:56:07;;;;;;;13.77;7.50;;;;;;;;;;5035851;28;20269;-69
2023/09/07 01:58:33;;;;;;;11.77;7.17;;;;;;;;;;5035944;28;20464;-69
2023/09/07 02:00:58;;;;;;;12.98;7.95;;;;;;;;;;5035924;28;20610;-69
2023/09/07 02:03:24;;;;;;;10.18;6.72;;;;;;;;;;5036012;28;20033;-69
2023/09/07 02:05:49;;;;;;;14.77;7.15;;;;;;;;;;5035619;28;20114;-69
2023/09/07 02:08:14;;;;;;;14.60;7.50;;;;;;;;;;5035682;28;20009;-69
2023/09/07 02:10:39;;;;;;;11.13;6.30;;;;;;;;;;5053072;28;20020;-69
2023/09/07 02:13:05;;;;;;;11.38;6.57;;;;;;;;;;5055130;28;20380;-69
2023/09/07 02:15:30;;;;;;;11.27;6.78;;;;;;;;;;5054619;28;20107;-69
2023/09/07 02:17:55;;;;;;;14.53;7.07;;;;;;;;;;5055437;28;20021;-69
2023/09/07 02:20:20;;;;;;;13.97;6.43;;;;;;;;;;5055399;28;20472;-69
2023/09/07 02:22:45;;;;;;;14.10;6.90;;;;;;;;;;5055364;28;20648;-69
2023/09/07 02:25:11;;;;;;;14.40;7.05;;;;;;;;;;5055155;28;20820;-69
2023/09/07 02:27:36;;;;;;;12.87;7.10;;;;;;;;;;5055224;28;20032;-69
2023/09/07 02:30:02;;;;;;;14.93;7.73;;;;;;;;;;5055059;28;20045;-69
2023/09/07 02:32:27;;;;;;;17.40;7.55;;;;;;;;;;5055134;28;20242;-69
2023/09/07 02:34:53;;;;;;;11.37;6.50;;;;;;;;;;5055097;28;20175;-69
2023/09/07 02:37:18;;;;;;;17.75;6.78;;;;;;;;;;5055033;28;20170;-69
2023/09/07 02:39:43;;;;;;;14.03;7.33;;;;;;;;;;5055017;28;20025;-69
2023/09/07 02:42:08;;;;;;;11.63;7.07;;;;;;;;;;5042812;28;20017;-69
2023/09/07 02:44:34;;;;;;;10.15;6.10;;;;;;;;;;5035009;28;20428;-69
2023/09/07 02:46:59;;;;;;;12.53;6.47;;;;;;;;;;5034933;28;20029;-69
2023/09/07 02:49:24;;;;;;;15.77;6.95;;;;;;;;;;5034877;28;20249;-69
2023/09/07 02:51:49;;;;;;;12.93;6.70;;;;;;;;;;5034850;28;20044;-69
2023/09/07 02:54:14;;;;;;;17.20;6.80;;;;;;;;;;5034774;28;20045;-69
2023/09/07 02:56:40;;;;;;;10.03;6.17;;;;;;;;;;5034700;28;20484;-69
2023/09/07 02:59:05;;;;;;;10.77;5.87;;;;;;;;;;5039100;28;20071;-69
2023/09/07 03:01:30;;;;;;;19.87;6.73;;;;;;;;;;5054652;28;20017;-69
2023/09/07 03:03:56;;;;;;;14.20;5.68;;;;;;;;;;5054603;28;20021;-69
2023/09/07 03:06:21;;;;;;;9.38;6.13;;;;;;;;;;5054391;28;20100;-69
2023/09/07 03:08:46;;;;;;;10.43;5.60;;;;;;;;;;5052678;28;20485;-69
2023/09/07 03:11:12;;;;;;;11.70;5.47;;;;;;;;;;5054517;28;20064;-69
2023/09/07 03:13:37;;;;;;;8.52;5.40;;;;;;;;;;5047763;28;20010;-69
2023/09/07 03:16:03;;;;;;;11.02;6.20;;;;;;;;;;5034616;28;20038;-69
2023/09/07 03:18:28;;;;;;;10.57;5.57;;;;;;;;;;5034570;28;20100;-69
2023/09/07 03:20:54;;;;;;;10.40;6.05;;;;;;;;;;5034233;28;20469;-69
2023/09/07 03:23:19;;;;;;;10.82;5.75;;;;;;;;;;5034223;28;20032;-69
2023/09/07 03:25:44;;;;;;;14.70;5.95;;;;;;;;;;5034026;28;20453;-69
2023/09/07 03:28:10;;;;;;;8.90;4.90;;;;;;;;;;5034182;28;20541;-69
2023/09/07 03:30:35;;;;;;;12.67;6.13;;;;;;;;;;5033868;28;20048;-69
2023/09/07 03:33:00;;;;;;;9.03;5.07;;;;;;;;;;5034067;28;20025;-69
2023/09/07 03:35:26;;;;;;;9.23;5.47;;;;;;;;;;5034049;28;20338;-69
2023/09/07 03:37:51;;;;;;;9.07;5.22;;;;;;;;;;5033952;28;20033;-69
2023/09/07 03:40:16;;;;;;;9.80;5.90;;;;;;;;;;5033984;28;20037;-69
2023/09/07 03:42:43;;;;;;;10.82;5.28;;;;;;;;;;5051269;28;20266;-69
2023/09/07 03:45:08;;;;;;;11.35;6.35;;;;;;;;;;5052636;28;20036;-69
2023/09/07 03:47:34;;;;;;;9.77;4.82;;;;;;;;;;5033854;28;20025;-69
2023/09/07 03:50:00;;;;;;;9.13;5.13;;;;;;;;;;5034019;28;20041;-69
2023/09/07 03:52:26;;;;;;;11.13;5.90;;;;;;;;;;5033995;28;20097;-69
2023/09/07 03:54:53;;;;;;;7.47;4.95;;;;;;;;;;5033939;28;20560;-69
2023/09/07 03:57:19;;;;;;;8.57;4.45;;;;;;;;;;5033507;28;20391;-69
2023/09/07 03:59:44;;;;;;;8.48;4.82;;;;;;;;;;5053614;28;20468;-69
2023/09/07 04:02:09;;;;;;;8.00;4.95;;;;;;;;;;5053496;28;20027;-69
2023/09/07 04:04:35;;;;;;;10.60;5.63;;;;;;;;;;5053533;28;20434;-69
2023/09/07 04:07:00;;;;;;;9.43;5.53;;;;;;;;;;5053288;28;20025;-69
2023/09/07 04:09:25;;;;;;;10.37;6.40;;;;;;;;;;5053411;28;20657;-69
2023/09/07 04:11:50;;;;;;;9.73;5.30;;;;;;;;;;5053342;28;20067;-69
2023/09/07 04:14:15;;;;;;;11.60;5.53;;;;;;;;;;5053363;28;20028;-69
2023/09/07 04:16:40;;;;;;;10.83;5.50;;;;;;;;;;5053320;28;20029;-69
2023/09/07 04:19:06;;;;;;;9.23;5.53;;;;;;;;;;5037261;28;20508;-69
2023/09/07 04:21:31;;;;;;;7.67;4.73;;;;;;;;;;5033486;28;20033;-69
2023/09/07 04:23:56;;;;;;;9.80;4.93;;;;;;;;;;5033437;28;20017;-69
2023/09/07 04:26:21;;;;;;;8.20;5.27;;;;;;;;;;5033202;28;20516;-69
2023/09/07 04:28:46;;;;;;;9.77;5.33;;;;;;;;;;5033438;28;20021;-69
2023/09/07 04:31:12;;;;;;;8.70;4.90;;;;;;;;;;5033098;28;20283;-69
2023/09/07 04:33:37;;;;;;;7.27;4.50;;;;;;;;;;5033473;28;20018;-69
2023/09/07 04:36:08;;;;;;;10.27;5.78;;;;;;;;;;5033421;28;20033;-69
2023/09/07 04:38:34;;;;;;;9.47;5.63;;;;;;;;;;5036344;28;20017;-69
2023/09/07 04:41:08;;;;;;;13.32;6.15;;;;;;;;;;5037522;28;20044;-69
2023/09/07 04:43:34;;;;;;;9.48;5.95;;;;;;;;;;5037489;28;20025;-69
2023/09/07 04:45:59;;;;;;;9.48;4.88;;;;;;;;;;5037162;28;20029;-69
2023/09/07 04:48:24;;;;;;;10.67;4.63;;;;;;;;;;5037169;28;20080;-69
2023/09/07 04:50:57;;;;;;;9.77;5.13;;;;;;;;;;5049346;28;20469;-69
2023/09/07 04:53:22;;;;;;;10.45;5.55;;;;;;;;;;5057007;28;20014;-69
2023/09/07 04:55:47;;;;;;;10.73;5.27;;;;;;;;;;5056985;28;20412;-69
2023/09/07 04:58:12;;;;;;;8.93;5.17;;;;;;;;;;5056925;28;20029;-69
2023/09/07 05:00:37;;;;;;;8.17;5.10;;;;;;;;;;5056980;28;20067;-68
2023/09/07 05:03:03;;;;;;;9.90;5.07;;;;;;;;;;5056823;28;20154;-68
2023/09/07 05:05:28;;;;;;;10.45;5.40;;;;;;;;;;5056773;28;20074;-68
2023/09/07 05:07:53;;;;;;;10.43;4.50;;;;;;;;;;5056986;28;20028;-69
2023/09/07 05:10:19;;;;;;;12.85;5.88;;;;;;;;;;5056681;28;20544;-69
2023/09/07 05:12:44;;;;;;;9.57;4.80;;;;;;;;;;5056660;28;20028;-69
2023/09/07 05:15:09;;;;;;;8.17;4.03;;;;;;;;;;5056615;28;20021;-69
2023/09/07 05:17:35;;;;;;;7.07;4.45;;;;;;;;;;5056215;28;20023;-69
2023/09/07 05:20:00;;;;;;;10.23;5.13;;;;;;;;;;5056783;28;20059;-68
2023/09/07 05:22:26;;;;;;;7.43;4.65;;;;;;;;;;5048638;28;20137;-69
2023/09/07 05:24:51;;;;;;;9.57;5.28;;;;;;;;;;5036468;28;20017;-68
2023/09/07 05:27:16;;;;;;;8.23;4.53;;;;;;;;;;5036382;28;20104;-68
2023/09/07 05:29:42;;;;;;;6.90;4.30;;;;;;;;;;5036150;28;20269;-67
2023/09/07 05:32:09;;;;;;;7.40;4.57;;;;;;;;;;5036403;28;20286;-66
2023/09/07 05:34:34;;;;;;;9.55;5.20;;;;;;;;;;5036601;28;20418;-65
2023/09/07 05:36:59;;;;;;;13.18;5.22;;;;;;;;;;5036300;28;20108;-66
2023/09/07 05:39:24;;;;;;;7.13;4.07;;;;;;;;;;5034986;28;20036;-66
2023/09/07 05:41:50;;;;;;;8.97;4.50;;;;;;;;;;5035955;28;20049;-66
2023/09/07 05:44:15;;;;;;;6.47;4.13;;;;;;;;;;5036141;28;20167;-65
2023/09/07 05:46:40;;;;;;;8.83;4.20;;;;;;;;;;5036326;28;20025;-67
2023/09/07 05:49:05;;;;;;;7.50;4.53;;;;;;;;;;5035755;28;20020;-68
2023/09/07 05:51:30;;;;;;;10.70;5.20;;;;;;;;;;5036258;28;20013;-68
2023/09/07 05:53:56;;;;;;;7.47;4.32;;;;;;;;;;5037826;28;20242;-68
2023/09/07 05:56:21;;;;;;;8.63;4.82;;;;;;;;;;5055853;28;20396;-65
2023/09/07 05:58:46;;;;;;;13.47;4.80;;;;;;;;;;5055764;28;20029;-66
2023/09/07 06:01:11;;;;;;;9.50;4.90;;;;;;;;;;5055775;28;20253;-66
2023/09/07 06:03:39;;;;;;;9.67;4.77;;;;;;;;;;5055719;28;20020;-67
2023/09/07 06:06:04;;;;;;;9.48;4.63;;;;;;;;;;5055680;28;20021;-67
2023/09/07 06:08:29;;;;;;;7.20;4.17;;;;;;;;;;5055632;28;20032;-67
2023/09/07 06:10:54;;;;;;;13.53;5.40;;;;;;;;;;5055553;28;20333;-67
2023/09/07 06:13:20;;;;;;;10.20;4.93;;;;;;;;;;5055478;28;20078;-67
2023/09/07 06:15:45;;;;;;;10.27;5.40;;;;;;;;;;5055464;28;20254;-67
2023/09/07 06:18:10;;;;;;;9.50;5.53;;;;;;;;;;5055676;28;20036;-67
2023/09/07 06:20:36;;;;;;;10.17;5.10;;;;;;;;;;5055084;28;20520;-67
2023/09/07 06:23:01;;;;;;;8.40;4.95;;;;;;;;;;5055411;28;20384;-67
2023/09/07 06:25:27;;;;;;;10.70;4.90;;;;;;;;;;5055479;28;20025;-67
2023/09/07 06:27:52;;;;;;;11.43;5.43;;;;;;;;;;5038220;28;20080;-67
2023/09/07 06:30:17;;;;;;;18.53;5.07;;;;;;;;;;5035244;28;20041;-67
2023/09/07 06:32:43;;;;;;;8.70;5.35;;;;;;;;;;5033094;28;20243;-68
2023/09/07 06:35:10;;;;;;;10.48;4.97;;;;;;;;;;5035195;28;20049;-67
2023/09/07 06:37:36;;;;;;;10.00;5.20;;;;;;;;;;5035081;28;20100;-68
2023/09/07 06:40:01;;;;;;;9.27;5.20;;;;;;;;;;5035067;28;20470;-68
2023/09/07 06:42:26;;;;;;;11.98;4.97;;;;;;;;;;5038331;28;20022;-68
2023/09/07 06:44:52;;;;;;;8.45;5.10;;;;;;;;;;5034920;28;20017;-68
2023/09/07 06:47:17;;;;;;;13.35;6.22;;;;;;;;;;5035071;28;20444;-68
2023/09/07 06:49:42;;;;;;;12.40;5.33;;;;;;;;;;5034767;28;20064;-68
2023/09/07 06:52:07;;;;;;;10.60;5.47;;;;;;;;;;5034787;28;20268;-68
2023/09/07 06:54:33;;;;;;;11.73;5.80;;;;;;;;;;5034789;28;20176;-68
2023/09/07 06:56:58;;;;;;;17.63;6.17;;;;;;;;;;5042729;28;20108;-68
2023/09/07 06:59:23;;;;;;;10.93;6.13;;;;;;;;;;5047378;28;20088;-68
2023/09/07 07:01:48;;;;;;;12.83;5.73;;;;;;;;;;5053757;28;20029;-68
2023/09/07 07:04:13;;;;;;;21.07;6.40;;;;;;;;;;5053713;28;20012;-68
2023/09/07 07:06:39;;;;;;;16.02;6.57;;;;;;;;;;5040155;28;20036;-68
2023/09/07 07:09:04;;;;;;;11.23;5.65;;;;;;;;;;5034691;28;20351;-68
2023/09/07 07:11:30;;;;;;;17.50;5.47;;;;;;;;;;5037708;28;20016;-68
2023/09/07 07:13:55;;;;;;;10.07;5.37;;;;;;;;;;5053753;28;20354;-68
2023/09/07 07:16:20;;;;;;;17.90;5.33;;;;;;;;;;5053327;28;20025;-68
2023/09/07 07:18:46;;;;;;;12.30;5.13;;;;;;;;;;5053582;28;20028;-68
2023/09/07 07:21:11;;;;;;;11.80;4.70;;;;;;;;;;5053817;28;20025;-68
2023/09/07 07:23:36;;;;;;;14.47;5.70;;;;;;;;;;5042946;28;20077;-68
2023/09/07 07:26:01;;;;;;;12.73;4.70;;;;;;;;;;5039262;28;20465;-68
2023/09/07 07:28:27;;;;;;;11.32;5.10;;;;;;;;;;5053577;28;20377;-68
2023/09/07 07:30:53;;;;;;;8.18;4.72;;;;;;;;;;5024689;28;20037;-68
2023/09/07 07:33:19;;;;;;;10.40;5.13;;;;;;;;;;5034211;28;20546;-69
2023/09/07 07:35:44;;;;;;;11.52;4.93;;;;;;;;;;5038442;28;20018;-69
2023/09/07 07:38:09;;;;;;;8.73;4.70;;;;;;;;;;5033981;28;20083;-68
2023/09/07 07:40:34;;;;;;;10.77;4.93;;;;;;;;;;5025768;28;20104;-69
2023/09/07 07:42:59;;;;;;;9.20;4.97;;;;;;;;;;5033801;28;20032;-69
2023/09/07 07:45:25;;;;;;;12.50;5.90;;;;;;;;;;5042251;28;20020;-69
2023/09/07 07:47:50;;;;;;;9.43;4.70;;;;;;;;;;5053085;28;20250;-68
2023/09/07 07:50:16;;;;;;;7.55;4.72;;;;;;;;;;5046439;28;20026;-68
2023/09/07 07:52:41;;;;;;;9.23;5.00;;;;;;;;;;5033610;28;20071;-68
2023/09/07 07:55:07;;;;;;;9.45;4.45;;;;;;;;;;5034818;28;20531;-68
2023/09/07 07:57:32;;;;;;;10.15;5.20;;;;;;;;;;5033524;28;20021;-68
2023/09/07 07:59:57;;;;;;;11.18;5.07;;;;;;;;;;5033094;28;20036;-68
2023/09/07 08:02:23;;;;;;;9.90;4.60;;;;;;;;;;5033198;28;20026;-68
2023/09/07 08:04:48;;;;;;;8.07;5.00;;;;;;;;;;5041296;28;20496;-68
2023/09/07 08:07:13;;;;;;;10.37;4.80;;;;;;;;;;5033337;28;20275;-68
2023/09/07 08:09:38;;;;;;;11.43;5.10;;;;;;;;;;5033674;28;20297;-68
2023/09/07 08:12:05;;;;;;;8.13;4.57;;;;;;;;;;5033540;28;20622;-68
2023/09/07 08:14:30;;;;;;;9.95;4.38;;;;;;;;;;5045769;28;20265;-68
2023/09/07 08:16:56;;;;;;;11.40;4.75;;;;;;;;;;5052663;28;20024;-68
2023/09/07 08:19:21;;;;;;;11.00;4.68;;;;;;;;;;5043216;28;20025;-68
2023/09/07 08:21:47;;;;;;;9.53;4.47;;;;;;;;;;5033257;28;20114;-68
2023/09/07 08:24:12;;;;;;;8.80;4.90;;;;;;;;;;5033151;28;20316;-68
2023/09/07 08:26:37;;;;;;;12.15;5.50;;;;;;;;;;5051454;28;20029;-68
2023/09/07 08:29:06;;;;;;;8.93;4.47;;;;;;;;;;5044298;28;20022;-67
2023/09/07 08:31:33;;;;;;;7.18;4.35;;;;;;;;;;5033074;28;20076;-68
2023/09/07 08:33:59;;;;;;;9.05;4.85;;;;;;;;;;5033373;28;20068;-68
2023/09/07 08:36:24;;;;;;;9.57;4.28;;;;;;;;;;5033321;28;20428;-68
2023/09/07 08:38:55;;;;;;;11.55;4.72;;;;;;;;;;5033361;28;20032;-67
2023/09/07 08:41:21;;;;;;;5.63;4.30;;;;;;;;;;5033063;28;20071;-68
2023/09/07 08:43:46;;;;;;;7.13;4.53;;;;;;;;;;5038869;28;20025;-68
2023/09/07 08:46:17;;;;;;;9.63;4.63;;;;;;;;;;5052249;28;20021;-68
2023/09/07 08:48:43;;;;;;;15.18;4.82;;;;;;;;;;5052401;28;20254;-67
2023/09/07 08:51:11;;;;;;;10.20;4.50;;;;;;;;;;5052365;28;20722;-68
2023/09/07 08:53:36;;;;;;;7.43;4.80;;;;;;;;;;5052002;28;20021;-67
2023/09/07 08:56:02;;;;;;;9.55;4.75;;;;;;;;;;5038708;28;20040;-68
2023/09/07 08:58:27;;;;;;;6.90;4.00;;;;;;;;;;5041300;28;20025;-67
2023/09/07 09:00:54;;;;;;;7.63;4.87;;;;;;;;;;5052338;28;20418;-71
2023/09/07 09:03:20;;;;;;;7.80;4.70;;;;;;;;;;5052477;28;20331;-71
2023/09/07 09:05:46;;;;;;;9.30;4.30;;;;;;;;;;5052083;28;20477;-71
2023/09/07 09:08:11;;;;;;;8.50;4.68;;;;;;;;;;5052183;28;20473;-71
2023/09/07 09:10:40;;;;;;;8.23;4.53;;;;;;;;;;5052227;28;20083;-71
2023/09/07 09:13:05;;;;;;;9.90;5.20;;;;;;;;;;5050749;28;20407;-70
2023/09/07 09:15:30;;;;;;;11.43;4.60;;;;;;;;;;5052434;28;20025;-71
2023/09/07 09:17:56;;;;;;;7.03;4.33;;;;;;;;;;5052094;28;20074;-71
2023/09/07 09:20:22;;;;;;;11.73;5.23;;;;;;;;;;5051770;28;20112;-71
2023/09/07 09:22:48;;;;;;;7.47;4.40;;;;;;;;;;5052403;28;20258;-71
2023/09/07 09:25:13;;;;;;;9.35;4.90;;;;;;;;;;5048744;28;20460;-71
2023/09/07 09:27:39;;;;;;;7.28;4.68;;;;;;;;;;5046359;28;20029;-71
2023/09/07 09:30:04;;;;;;;6.30;4.40;;;;;;;;;;5055556;28;20443;-70
2023/09/07 09:32:29;;;;;;;8.95;4.80;;;;;;;;;;5055718;28;20048;-71
2023/09/07 09:34:54;;;;;;;7.33;4.10;;;;;;;;;;5055526;28;20112;-71
2023/09/07 09:37:20;;;;;;;7.27;4.47;;;;;;;;;;5055565;28;20025;-72
2023/09/07 09:39:49;;;;;;;7.47;4.10;;;;;;;;;;5055241;28;20055;-71
2023/09/07 09:42:14;;;;;;;9.73;4.43;;;;;;;;;;5043804;28;20555;-72
2023/09/07 09:44:40;;;;;;;7.45;4.57;;;;;;;;;;5036061;28;20021;-72
2023/09/07 09:47:06;;;;;;;8.05;5.05;;;;;;;;;;5036128;28;20479;-71
2023/09/07 09:49:32;;;;;;;7.25;4.50;;;;;;;;;;5036013;28;20096;-71
2023/09/07 09:51:58;;;;;;;7.13;4.75;;;;;;;;;;5035947;28;20014;-72
2023/09/07 09:54:23;;;;;;;10.88;5.38;;;;;;;;;;5052315;28;20013;-72
2023/09/07 09:56:49;;;;;;;8.83;5.20;;;;;;;;;;5050018;28;20040;-72
2023/09/07 09:59:14;;;;;;;9.23;4.90;;;;;;;;;;5054779;28;20025;-72
2023/09/07 10:01:41;;;;;;;9.13;4.35;;;;;;;;;;5055372;28;20246;-72
2023/09/07 10:04:08;;;;;;;7.18;4.57;;;;;;;;;;5055058;28;20063;-72
2023/09/07 10:06:33;;;;;;;9.55;4.93;;;;;;;;;;5054666;28;20487;-71
2023/09/07 10:09:06;;;;;;;9.60;4.50;;;;;;;;;;5038968;28;20040;-72
2023/09/07 10:11:39;;;;;;;5.57;4.05;;;;;;;;;;5051575;28;20056;-71
2023/09/07 10:14:08;;;;;;;8.77;4.70;;;;;;;;;;5055152;28;20071;-72
2023/09/07 10:16:49;;;;;;;6.35;4.50;;;;;;;;;;5050964;28;20511;-73
2023/09/07 10:19:21;;;;;;;9.43;4.50;;;;;;;;;;5036750;28;20052;-73
2023/09/07 10:21:47;;;;;;;7.80;4.80;;;;;;;;;;5032790;28;20035;-72
2023/09/07 10:24:23;;;;;;;7.63;4.35;;;;;;;;;;5034563;28;20021;-73
2023/09/07 10:26:55;;;;;;;8.13;4.35;;;;;;;;;;5034427;28;20026;-72
2023/09/07 10:29:21;;;;;;;10.68;4.57;;;;;;;;;;5034521;28;20029;-73
2023/09/07 10:31:50;;;;;;;6.60;4.37;;;;;;;;;;5034183;28;20044;-72
2023/09/07 10:34:17;;;;;;;8.40;4.43;;;;;;;;;;5034175;28;20021;-73
2023/09/07 10:36:42;;;;;;;7.68;4.80;;;;;;;;;;5033104;28;20030;-71
2023/09/07 10:39:08;;;;;;;6.35;4.22;;;;;;;;;;5034645;28;20387;-73
2023/09/07 10:41:41;;;;;;;7.88;4.70;;;;;;;;;;5034943;28;20075;-73
2023/09/07 10:44:07;;;;;;;7.97;4.35;;;;;;;;;;5034679;28;20037;-72
2023/09/07 10:46:32;;;;;;;9.27;4.97;;;;;;;;;;5034673;28;20026;-73
2023/09/07 10:48:57;;;;;;;7.80;4.60;;;;;;;;;;5034375;28;20097;-73
2023/09/07 10:51:23;;;;;;;8.13;4.57;;;;;;;;;;5033710;28;20036;-73
2023/09/07 10:53:48;;;;;;;6.47;4.03;;;;;;;;;;5034189;28;20104;-72
2023/09/07 10:56:13;;;;;;;11.65;4.90;;;;;;;;;;5034377;28;20029;-73
2023/09/07 10:58:41;;;;;;;7.00;4.35;;;;;;;;;;5034001;28;20073;-72
2023/09/07 11:01:07;;;;;;;7.05;4.65;;;;;;;;;;5034498;28;20067;-73
2023/09/07 11:03:33;;;;;;;8.02;4.40;;;;;;;;;;5034199;28;20029;-73
2023/09/07 11:06:01;;;;;;;8.23;4.95;;;;;;;;;;5033708;28;20025;-73
2023/09/07 11:08:27;;;;;;;9.38;4.50;;;;;;;;;;5033834;28;20029;-73
2023/09/07 11:10:52;;;;;;;9.27;4.40;;;;;;;;;;5033748;28;20049;-73
2023/09/07 11:13:17;;;;;;;7.10;4.10;;;;;;;;;;5034183;28;20018;-73
2023/09/07 11:15:43;;;;;;;7.17;4.70;;;;;;;;;;5033745;28;20037;-72
2023/09/07 11:18:09;;;;;;;6.20;4.28;;;;;;;;;;5034221;28;20049;-73
2023/09/07 11:20:39;;;;;;;6.82;4.68;;;;;;;;;;5033704;28;20473;-73
2023/09/07 11:23:04;;;;;;;7.63;4.05;;;;;;;;;;5026692;28;20388;-73
2023/09/07 11:25:36;;;;;;;8.55;4.45;;;;;;;;;;5033848;28;20029;-73
2023/09/07 11:28:02;;;;;;;6.60;4.43;;;;;;;;;;5033596;28;20021;-73
2023/09/07 11:30:27;;;;;;;7.90;4.15;;;;;;;;;;5033394;28;20386;-73
2023/09/07 11:33:00;;;;;;;10.50;5.00;;;;;;;;;;5033504;28;20036;-71
2023/09/07 11:35:25;;;;;;;5.88;4.47;;;;;;;;;;5025825;28;20267;-73
2023/09/07 11:37:51;;;;;;;8.50;4.63;;;;;;;;;;5033152;28;20114;-73
2023/09/07 11:40:16;;;;;;;6.68;4.38;;;;;;;;;;5033434;28;20095;-73
2023/09/07 11:42:42;;;;;;;11.27;4.93;;;;;;;;;;5033333;28;20021;-72
2023/09/07 11:45:07;;;;;;;7.67;4.80;;;;;;;;;;5033510;28;20267;-73
2023/09/07 11:47:34;;;;;;;6.55;4.72;;;;;;;;;;5033246;28;20079;-72
2023/09/07 11:49:59;;;;;;;6.22;4.30;;;;;;;;;;5032846;28;20033;-70
2023/09/07 11:52:25;;;;;;;12.57;4.80;;;;;;;;;;5033453;28;20017;-73
2023/09/07 11:54:50;;;;;;;6.33;4.60;;;;;;;;;;5033412;28;20461;-73
2023/09/07 11:57:16;;;;;;;7.80;4.73;;;;;;;;;;5033526;28;20027;-73
2023/09/07 11:59:41;;;;;;;9.88;4.45;;;;;;;;;;5033381;28;20128;-72
2023/09/07 12:02:06;;;;;;;7.68;4.45;;;;;;;;;;5025055;28;20385;-72
2023/09/07 12:04:31;;;;;;;7.85;4.60;;;;;;;;;;5033392;28;20473;-72
2023/09/07 12:06:57;;;;;;;8.33;4.60;;;;;;;;;;5032079;28;20021;-73
2023/09/07 12:09:22;;;;;;;8.33;4.20;;;;;;;;;;5033017;28;20017;-73
2023/09/07 12:11:47;;;;;;;7.07;4.40;;;;;;;;;;5032859;28;20017;-72
2023/09/07 12:14:12;;;;;;;7.33;4.77;;;;;;;;;;5033010;28;20032;-73
2023/09/07 12:16:38;;;;;;;8.57;4.40;;;;;;;;;;5032980;28;20017;-72
2023/09/07 12:19:03;;;;;;;6.97;4.57;;;;;;;;;;5032849;28;20370;-73
2023/09/07 12:21:28;;;;;;;7.80;4.50;;;;;;;;;;5032341;28;20389;-73
2023/09/07 12:23:53;;;;;;;8.30;4.30;;;;;;;;;;5032630;28;20114;-73
2023/09/07 12:26:20;;;;;;;8.10;4.53;;;;;;;;;;5032797;28;20061;-73
2023/09/07 12:28:46;;;;;;;7.70;4.57;;;;;;;;;;5032548;28;20029;-73
2023/09/07 12:31:11;;;;;;;8.15;4.85;;;;;;;;;;5032736;28;20046;-73
2023/09/07 12:33:37;;;;;;;8.88;4.70;;;;;;;;;;5032912;28;20029;-72
2023/09/07 12:36:03;;;;;;;8.65;4.90;;;;;;;;;;5032518;28;20373;-72
2023/09/07 12:38:29;;;;;;;7.50;4.45;;;;;;;;;;5032481;28;20052;-72
2023/09/07 12:40:54;;;;;;;8.88;4.90;;;;;;;;;;5032508;28;20285;-73
2023/09/07 12:43:19;;;;;;;8.68;4.90;;;;;;;;;;5032699;28;20039;-73
2023/09/07 12:45:48;;;;;;;9.02;5.13;;;;;;;;;;5032391;28;20037;-72
2023/09/07 12:48:13;;;;;;;8.50;4.50;;;;;;;;;;5032558;28;20033;-73
2023/09/07 12:50:42;;;;;;;9.53;5.10;;;;;;;;;;5032133;28;20036;-72
2023/09/07 12:53:08;;;;;;;6.95;4.68;;;;;;;;;;5024983;28;20017;-73
2023/09/07 12:55:33;;;;;;;9.17;5.17;;;;;;;;;;5032606;28;20024;-73
2023/09/07 12:58:00;;;;;;;8.07;5.20;;;;;;;;;;5032759;28;20025;-73
2023/09/07 13:00:25;;;;;;;7.20;4.65;;;;;;;;;;5036339;28;20018;-73
2023/09/07 13:02:50;;;;;;;11.13;4.97;;;;;;;;;;5036390;28;20147;-73
2023/09/07 13:05:16;;;;;;;8.13;4.47;;;;;;;;;;5035618;28;20036;-73
2023/09/07 13:07:43;;;;;;;7.57;5.07;;;;;;;;;;5035936;28;20262;-73
2023/09/07 13:10:09;;;;;;;10.10;5.10;;;;;;;;;;5036299;28;20108;-73
2023/09/07 13:12:34;;;;;;;8.60;5.43;;;;;;;;;;5036326;28;20100;-71
2023/09/07 13:14:59;;;;;;;7.40;5.20;;;;;;;;;;5036175;28;20052;-73
2023/09/07 13:17:25;;;;;;;10.53;5.07;;;;;;;;;;5036158;28;20121;-71
2023/09/07 13:19:50;;;;;;;6.75;5.20;;;;;;;;;;5035473;28;20112;-73
2023/09/07 13:22:16;;;;;;;6.90;5.15;;;;;;;;;;5036320;28;20036;-73
2023/09/07 13:24:41;;;;;;;7.78;4.95;;;;;;;;;;5035832;28;20108;-72
2023/09/07 13:27:08;;;;;;;7.77;5.30;;;;;;;;;;5035890;28;20432;-73
2023/09/07 13:29:33;;;;;;;9.07;5.00;;;;;;;;;;5035905;28;20071;-72
2023/09/07 13:31:59;;;;;;;8.93;5.70;;;;;;;;;;5035670;28;20029;-73
2023/09/07 13:34:24;;;;;;;9.82;5.78;;;;;;;;;;5035365;28;20026;-73
2023/09/07 13:36:49;;;;;;;15.48;5.80;;;;;;;;;;5035542;28;20025;-72
2023/09/07 13:39:14;;;;;;;12.30;5.93;;;;;;;;;;5035696;28;20068;-73
2023/09/07 13:41:40;;;;;;;8.83;5.40;;;;;;;;;;5035841;28;20083;-66
2023/09/07 13:44:05;;;;;;;8.52;5.10;;;;;;;;;;5035839;28;20476;-67
2023/09/07 13:46:30;;;;;;;12.73;5.93;;;;;;;;;;5035449;28;20392;-66
2023/09/07 13:48:56;;;;;;;7.78;5.63;;;;;;;;;;5035002;28;20132;-66
2023/09/07 13:51:21;;;;;;;9.37;5.93;;;;;;;;;;5035585;28;20421;-66
2023/09/07 13:53:46;;;;;;;11.17;5.80;;;;;;;;;;5035227;28;20257;-66
2023/09/07 13:56:11;;;;;;;9.90;5.63;;;;;;;;;;5035566;28;20285;-66
2023/09/07 13:58:37;;;;;;;9.18;5.68;;;;;;;;;;5035632;28;20035;-66
2023/09/07 14:01:02;;;;;;;8.50;5.40;;;;;;;;;;5035459;28;20025;-66
2023/09/07 14:03:27;;;;;;;8.90;5.57;;;;;;;;;;5035284;28;20257;-67
2023/09/07 14:05:52;;;;;;;12.07;5.20;;;;;;;;;;5034729;28;20051;-66
2023/09/07 14:08:23;;;;;;;7.47;5.70;;;;;;;;;;5035019;28;20377;-67
2023/09/07 14:10:48;;;;;;;8.63;5.70;;;;;;;;;;5035144;28;20714;-66
2023/09/07 14:13:13;;;;;;;14.00;5.87;;;;;;;;;;5035283;28;20085;-67
2023/09/07 14:15:38;;;;;;;12.33;6.10;;;;;;;;;;5035024;28;20116;-66
2023/09/07 14:18:04;;;;;;;11.10;5.50;;;;;;;;;;5035111;28;20038;-66
2023/09/07 14:20:29;;;;;;;8.27;5.57;;;;;;;;;;5034208;28;20029;-66
2023/09/07 14:22:56;;;;;;;9.80;5.57;;;;;;;;;;5034819;28;20439;-66
2023/09/07 14:25:21;;;;;;;9.30;4.95;;;;;;;;;;5034751;28;20040;-67
2023/09/07 14:27:47;;;;;;;7.97;5.63;;;;;;;;;;5034767;28;20370;-67